createdAt,value
2023-04-04T00:00:53.721Z,45.40
2023-04-04T00:03:21.634Z,46.55
2023-04-04T00:05:52.373Z,46.39
2023-04-04T00:08:21.348Z,46.85
2023-04-04T00:10:49.139Z,47.29
2023-04-04T00:13:17.208Z,47.02
2023-04-04T00:15:45.310Z,47.07
2023-04-04T00:18:13.517Z,47.84
2023-04-04T00:20:41.425Z,47.96
2023-04-04T00:23:11.224Z,47.68
2023-04-04T00:25:39.125Z,47.55
2023-04-04T00:28:07.221Z,48.23
2023-04-04T00:30:35.262Z,48.24
2023-04-04T00:33:03.662Z,48.12
2023-04-04T00:35:31.300Z,48.22
2023-04-04T00:37:58.853Z,48.71
2023-04-04T00:40:26.764Z,48.82
2023-04-04T00:42:55.454Z,49.01
2023-04-04T00:45:23.253Z,49.09
2023-04-04T00:47:51.278Z,49.65
2023-04-04T00:50:19.639Z,49.47
2023-04-04T00:52:47.797Z,49.54
2023-04-04T00:55:16.668Z,49.33
2023-04-04T00:57:44.800Z,49.53
2023-04-04T01:00:12.765Z,49.97
2023-04-04T01:02:40.987Z,49.54
2023-04-04T01:05:09.385Z,49.16
2023-04-04T01:07:37.298Z,49.64
2023-04-04T01:10:06.614Z,49.15
2023-04-04T01:12:34.180Z,49.54
2023-04-04T01:15:02.496Z,49.76
2023-04-04T01:17:30.686Z,49.39
2023-04-04T01:20:08.114Z,49.61
2023-04-04T01:22:36.185Z,50.17
2023-04-04T01:25:03.975Z,50.28
2023-04-04T01:27:31.549Z,50.38
2023-04-04T01:29:59.695Z,50.18
2023-04-04T01:32:51.704Z,50.53
2023-04-04T01:35:21.553Z,50.95
2023-04-04T01:38:06.928Z,51.00
2023-04-04T01:40:39.950Z,51.02
2023-04-04T01:43:07.956Z,51.22
2023-04-04T01:45:36.373Z,51.18
2023-04-04T01:48:04.712Z,51.32
2023-04-04T01:50:32.050Z,51.20
2023-04-04T01:53:00.201Z,51.22
2023-04-04T01:55:28.117Z,51.27
2023-04-04T01:57:55.504Z,51.57
2023-04-04T02:00:23.746Z,51.19
2023-04-04T02:02:51.737Z,51.29
2023-04-04T02:05:19.335Z,51.63
2023-04-04T02:07:50.844Z,52.08
2023-04-04T02:10:18.620Z,52.23
2023-04-04T02:12:47.782Z,52.77
2023-04-04T02:15:16.042Z,52.73
2023-04-04T02:17:48.620Z,52.71
2023-04-04T02:20:19.345Z,53.16
2023-04-04T02:23:14.881Z,53.46
2023-04-04T02:25:42.961Z,53.15
2023-04-04T02:28:11.795Z,53.80
2023-04-04T02:30:40.502Z,54.07
2023-04-04T02:33:08.892Z,53.68
2023-04-04T02:35:40.892Z,53.48
2023-04-04T02:38:08.851Z,53.59
2023-04-04T02:40:40.081Z,53.81
2023-04-04T02:43:07.885Z,54.09
2023-04-04T02:45:35.419Z,54.01
2023-04-04T02:48:03.948Z,53.78
2023-04-04T02:50:31.882Z,53.97
2023-04-04T02:53:03.664Z,54.30
2023-04-04T02:55:31.510Z,53.96
2023-04-04T02:57:59.257Z,53.95
2023-04-04T03:00:27.339Z,55.51
2023-04-04T03:02:55.916Z,55.51
2023-04-04T03:05:26.982Z,54.95
2023-04-04T03:07:59.112Z,55.90
2023-04-04T03:10:29.969Z,55.24
2023-04-04T03:12:57.709Z,55.20
2023-04-04T03:15:26.591Z,58.76
2023-04-04T03:17:54.055Z,60.10
2023-04-04T03:20:22.197Z,58.26
2023-04-04T03:22:49.749Z,57.83
2023-04-04T03:25:17.728Z,57.51
2023-04-04T03:27:45.485Z,59.10
2023-04-04T03:30:14.373Z,59.47
2023-04-04T03:32:42.269Z,59.55
2023-04-04T03:35:10.043Z,60.23
2023-04-04T03:37:39.133Z,60.95
2023-04-04T03:40:09.720Z,61.87
2023-04-04T03:42:37.936Z,62.19
2023-04-04T03:45:07.443Z,61.61
2023-04-04T03:47:35.499Z,62.44
2023-04-04T03:50:03.773Z,62.17
2023-04-04T03:52:31.257Z,62.04
2023-04-04T03:54:59.454Z,62.48
2023-04-04T03:57:28.440Z,62.67
2023-04-04T03:59:56.485Z,62.80
2023-04-04T04:02:24.372Z,62.53
2023-04-04T04:04:53.921Z,63.30
2023-04-04T04:07:21.625Z,62.95
2023-04-04T04:09:49.843Z,62.64
2023-04-04T04:12:17.754Z,63.09
2023-04-04T04:14:45.611Z,61.89
2023-04-04T04:17:13.377Z,61.71
2023-04-04T04:19:41.204Z,62.18
2023-04-04T04:22:09.526Z,62.19
2023-04-04T04:24:37.079Z,61.29
2023-04-04T04:27:05.427Z,60.32
2023-04-04T04:29:33.366Z,59.56
2023-04-04T04:32:01.877Z,59.09
2023-04-04T04:34:29.840Z,58.14
2023-04-04T04:36:57.983Z,57.24
2023-04-04T04:39:26.174Z,56.49
2023-04-04T04:41:53.974Z,55.70
2023-04-04T04:44:22.442Z,55.42
2023-04-04T04:46:50.413Z,54.93
2023-04-04T04:49:17.996Z,54.58
2023-04-04T04:51:45.772Z,54.93
2023-04-04T04:54:13.869Z,53.97
2023-04-04T04:56:41.945Z,53.32
2023-04-04T04:59:11.639Z,53.69
2023-04-04T05:01:39.729Z,52.80
2023-04-04T05:04:07.803Z,52.09
2023-04-04T05:06:35.961Z,51.49
2023-04-04T05:09:05.050Z,51.96
2023-04-04T05:11:33.178Z,50.55
2023-04-04T05:14:00.908Z,50.31
2023-04-04T05:16:29.117Z,50.01
2023-04-04T05:18:57.299Z,49.82
2023-04-04T05:21:25.428Z,49.46
2023-04-04T05:23:53.477Z,48.75
2023-04-04T05:26:21.489Z,47.90
2023-04-04T05:28:49.635Z,48.58
2023-04-04T05:31:17.257Z,47.11
2023-04-04T05:33:45.703Z,47.25
2023-04-04T05:36:13.447Z,46.51
2023-04-04T05:38:41.365Z,46.06
2023-04-04T05:41:09.379Z,45.26
2023-04-04T05:43:37.089Z,45.61
2023-04-04T05:46:05.497Z,44.71
2023-04-04T05:48:33.192Z,44.16
2023-04-04T05:51:01.063Z,44.28
2023-04-04T05:53:28.680Z,44.08
2023-04-04T05:55:56.600Z,43.49
2023-04-04T05:58:24.836Z,43.60
2023-04-04T06:00:52.620Z,43.35
2023-04-04T06:03:22.482Z,43.26
2023-04-04T06:05:53.516Z,43.56
2023-04-04T06:08:21.319Z,43.03
2023-04-04T06:10:48.921Z,43.19
2023-04-04T06:13:16.853Z,42.70
2023-04-04T06:15:44.996Z,42.83
2023-04-04T06:18:13.122Z,42.29
2023-04-04T06:20:41.990Z,42.26
2023-04-04T06:23:10.378Z,42.47
2023-04-04T06:25:38.296Z,41.89
2023-04-04T06:28:06.914Z,41.77
2023-04-04T06:30:40.162Z,41.43
2023-04-04T06:33:07.828Z,41.23
2023-04-04T06:35:35.555Z,41.14
2023-04-04T06:38:04.384Z,41.03
2023-04-04T06:40:32.476Z,39.77
2023-04-04T06:43:00.363Z,39.44
2023-04-04T06:45:28.512Z,38.59
2023-04-04T06:47:56.276Z,39.34
2023-04-04T06:50:24.089Z,39.33
2023-04-04T06:52:52.085Z,38.46
2023-04-04T06:55:20.227Z,38.06
2023-04-04T06:57:48.386Z,37.26
2023-04-04T07:00:19.020Z,37.38
2023-04-04T07:02:47.004Z,36.82
2023-04-04T07:05:17.850Z,36.32
2023-04-04T07:07:47.143Z,35.63
2023-04-04T07:10:15.092Z,35.82
2023-04-04T07:12:43.451Z,35.71
2023-04-04T07:15:13.288Z,34.78
2023-04-04T07:17:41.660Z,34.47
2023-04-04T07:20:10.554Z,34.23
2023-04-04T07:22:39.865Z,34.12
2023-04-04T07:25:09.815Z,33.93
2023-04-04T07:27:37.670Z,34.61
2023-04-04T07:30:05.492Z,33.88
2023-04-04T07:32:35.941Z,33.98
2023-04-04T07:35:05.266Z,33.02
2023-04-04T07:37:33.640Z,33.42
2023-04-04T07:40:01.660Z,32.54
2023-04-04T07:42:31.270Z,32.70
2023-04-04T07:44:59.500Z,32.25
2023-04-04T07:47:27.827Z,32.56
2023-04-04T07:49:55.585Z,32.93
2023-04-04T07:52:23.270Z,33.92
2023-04-04T07:54:51.904Z,33.12
2023-04-04T07:57:20.092Z,33.50
2023-04-04T07:59:48.576Z,33.46
2023-04-04T08:02:17.844Z,33.92
2023-04-04T08:04:46.072Z,33.17
2023-04-04T08:07:14.393Z,33.74
2023-04-04T08:09:42.506Z,32.89
2023-04-04T08:12:09.963Z,33.36
2023-04-04T08:14:37.650Z,33.83
2023-04-04T08:17:05.597Z,32.77
2023-04-04T08:19:33.084Z,32.60
2023-04-04T08:22:01.186Z,33.06
2023-04-04T08:24:29.155Z,32.22
2023-04-04T08:27:04.460Z,32.08
2023-04-04T08:29:33.381Z,31.64
2023-04-04T08:32:01.301Z,31.78
2023-04-04T08:34:28.796Z,32.72
2023-04-04T08:36:57.078Z,32.39
2023-04-04T08:39:25.131Z,32.33
2023-04-04T08:41:58.865Z,32.42
2023-04-04T08:44:27.593Z,32.33
2023-04-04T08:46:55.288Z,32.31
2023-04-04T08:49:22.255Z,30.98
2023-04-04T08:51:49.389Z,32.37
2023-04-04T08:54:17.875Z,31.82
2023-04-04T08:56:46.037Z,31.32
2023-04-04T08:59:15.745Z,31.84
2023-04-04T09:01:43.878Z,31.26
2023-04-04T09:04:11.525Z,32.04
2023-04-04T09:06:38.651Z,31.96
2023-04-04T09:09:06.769Z,30.82
2023-04-04T09:11:35.091Z,30.72
2023-04-04T09:14:05.144Z,31.11
2023-04-04T09:16:33.258Z,31.00
2023-04-04T09:19:00.942Z,30.07
2023-04-04T09:21:29.345Z,30.41
2023-04-04T09:24:01.098Z,31.05
2023-04-04T09:26:28.698Z,30.05
2023-04-04T09:28:56.925Z,30.84
2023-04-04T09:31:25.012Z,30.67
2023-04-04T09:33:52.776Z,29.96
2023-04-04T09:36:20.752Z,30.27
2023-04-04T09:38:49.561Z,30.27
2023-04-04T09:41:16.995Z,30.31
2023-04-04T09:43:48.568Z,30.07
2023-04-04T09:46:16.263Z,29.39
2023-04-04T09:48:43.603Z,29.23
2023-04-04T09:51:13.423Z,29.97
2023-04-04T09:53:42.458Z,29.79
2023-04-04T09:56:12.063Z,30.50
2023-04-04T09:58:44.281Z,29.36
2023-04-04T10:01:16.652Z,28.24
2023-04-04T10:03:44.254Z,29.63
2023-04-04T10:06:12.488Z,30.03
2023-04-04T10:08:40.674Z,29.76
2023-04-04T10:11:11.277Z,29.12
2023-04-04T10:13:44.766Z,29.33
2023-04-04T10:16:12.390Z,29.14
2023-04-04T10:18:39.831Z,30.10
2023-04-04T10:23:39.094Z,28.99
2023-04-04T10:26:06.742Z,28.66
2023-04-04T10:28:34.578Z,28.71
2023-04-04T10:31:18.299Z,29.12
2023-04-04T10:34:12.625Z,29.14
2023-04-04T10:36:46.081Z,29.52
2023-04-04T10:39:23.925Z,29.85
2023-04-04T10:41:52.871Z,28.93
2023-04-04T10:45:06.057Z,27.75
2023-04-04T10:47:40.882Z,27.25
2023-04-04T10:50:13.646Z,28.38
2023-04-04T10:52:42.210Z,28.28
2023-04-04T10:55:11.115Z,26.98
2023-04-04T10:57:46.389Z,25.70
2023-04-04T11:00:18.336Z,24.64
2023-04-04T11:02:48.336Z,22.30
2023-04-04T11:05:31.746Z,20.01
2023-04-04T11:10:42.185Z,20.20
2023-04-04T11:13:22.890Z,18.98
2023-04-04T11:16:00.339Z,17.44
2023-04-04T11:18:34.201Z,18.29
2023-04-04T11:21:08.089Z,19.07
2023-04-04T11:23:50.019Z,18.50
2023-04-04T11:26:46.272Z,18.50
2023-04-04T11:29:21.249Z,19.81
2023-04-04T11:31:49.828Z,19.67
2023-04-04T11:34:30.540Z,19.60
2023-04-04T11:37:01.816Z,20.18
2023-04-04T11:39:33.831Z,20.78
2023-04-04T11:42:09.044Z,20.34
2023-04-04T11:45:03.630Z,20.43
2023-04-04T11:47:31.664Z,21.62
2023-04-04T11:50:01.597Z,21.89
2023-04-04T11:52:35.591Z,22.84
2023-04-04T11:55:03.634Z,22.14
2023-04-04T11:57:31.296Z,23.24
2023-04-04T11:59:59.028Z,24.10
2023-04-04T12:02:34.757Z,24.14
2023-04-04T12:05:02.856Z,24.49
2023-04-04T12:07:29.639Z,23.84
2023-04-04T12:09:57.850Z,24.91
2023-04-04T12:12:31.504Z,23.07
2023-04-04T12:15:10.487Z,22.84
2023-04-04T12:17:44.481Z,22.18
2023-04-04T12:20:13.223Z,21.98
2023-04-04T12:22:46.781Z,21.64
2023-04-04T12:25:14.523Z,22.07
2023-04-04T12:27:42.959Z,22.02
2023-04-04T12:30:15.860Z,20.97
2023-04-04T12:32:47.332Z,20.87
2023-04-04T12:35:15.792Z,20.55
2023-04-04T12:38:10.874Z,20.38
2023-04-04T12:40:38.654Z,21.27
2023-04-04T12:43:27.969Z,20.97
2023-04-04T12:45:55.794Z,19.49
2023-04-04T12:48:27.493Z,19.63
2023-04-04T12:50:59.222Z,20.08
2023-04-04T12:53:29.413Z,19.38
2023-04-04T12:56:00.299Z,19.63
2023-04-04T12:58:27.163Z,20.20
2023-04-04T13:00:55.634Z,19.82
2023-04-04T13:03:26.229Z,20.28
2023-04-04T13:05:54.257Z,19.83
2023-04-04T13:08:21.398Z,18.91
2023-04-04T13:11:05.257Z,18.98
2023-04-04T13:13:40.707Z,19.39
2023-04-04T13:16:09.077Z,18.90
2023-04-04T13:18:44.276Z,18.49
2023-04-04T13:21:13.262Z,18.46
2023-04-04T13:23:41.399Z,18.67
2023-04-04T13:26:09.458Z,18.77
2023-04-04T13:28:37.730Z,17.30
2023-04-04T13:31:05.689Z,17.88
2023-04-04T13:33:33.734Z,17.11
2023-04-04T13:36:01.493Z,17.53
2023-04-04T13:38:29.902Z,17.75
2023-04-04T13:41:00.935Z,17.87
2023-04-04T13:43:28.789Z,18.50
2023-04-04T13:45:56.352Z,18.17
2023-04-04T13:48:24.513Z,18.58
2023-04-04T13:50:53.399Z,17.86
2023-04-04T13:53:21.284Z,17.42
2023-04-04T13:58:20.605Z,17.73
2023-04-04T14:00:50.684Z,17.20
2023-04-04T14:03:18.855Z,18.06
2023-04-04T14:05:46.964Z,17.84
2023-04-04T14:08:14.809Z,16.65
2023-04-04T14:10:42.428Z,16.66
2023-04-04T14:13:10.426Z,16.61
2023-04-04T14:15:39.937Z,17.53
2023-04-04T14:18:07.951Z,17.47
2023-04-04T14:20:41.612Z,16.46
2023-04-04T14:23:09.574Z,17.16
2023-04-04T14:25:37.103Z,16.47
2023-04-04T14:28:05.316Z,17.08
2023-04-04T14:30:33.525Z,16.39
2023-04-04T14:33:01.355Z,16.73
2023-04-04T14:35:29.630Z,17.02
2023-04-04T14:37:59.788Z,17.52
2023-04-04T14:40:29.617Z,17.73
2023-04-04T14:42:57.226Z,17.70
2023-04-04T14:45:25.370Z,17.63
2023-04-04T14:47:53.620Z,17.04
2023-04-04T14:50:21.207Z,16.80
2023-04-04T14:52:51.248Z,16.35
2023-04-04T14:55:19.677Z,16.27
2023-04-04T14:58:01.334Z,16.21
2023-04-04T15:00:30.749Z,17.19
2023-04-04T15:02:58.984Z,16.09
2023-04-04T15:05:27.250Z,16.94
2023-04-04T15:07:55.846Z,17.28
2023-04-04T15:10:23.971Z,18.33
2023-04-04T15:12:51.869Z,19.25
2023-04-04T15:15:20.621Z,18.90
2023-04-04T15:17:50.203Z,19.90
2023-04-04T15:20:18.450Z,20.59
2023-04-04T15:22:46.554Z,21.00
2023-04-04T15:25:14.123Z,20.68
2023-04-04T15:27:42.045Z,20.62
2023-04-04T15:30:13.168Z,21.00
2023-04-04T15:32:40.838Z,21.29
2023-04-04T15:35:16.132Z,20.96
2023-04-04T15:37:44.504Z,21.21
2023-04-04T15:40:13.418Z,20.97
2023-04-04T15:42:41.483Z,20.24
2023-04-04T15:45:11.380Z,20.48
2023-04-04T15:47:40.232Z,19.76
2023-04-04T15:50:11.135Z,19.26
2023-04-04T15:52:39.078Z,19.25
2023-04-04T15:55:11.799Z,18.81
2023-04-04T15:57:39.677Z,18.46
2023-04-04T16:00:09.546Z,18.40
2023-04-04T16:02:37.471Z,18.42
2023-04-04T16:05:06.213Z,18.76
2023-04-04T16:07:34.018Z,19.41
2023-04-04T16:10:02.201Z,20.15
2023-04-04T16:12:30.214Z,20.14
2023-04-04T16:14:57.719Z,20.95
2023-04-04T16:17:26.276Z,21.45
2023-04-04T16:19:53.971Z,21.76
2023-04-04T16:22:22.024Z,22.44
2023-04-04T16:24:50.156Z,22.85
2023-04-04T16:27:17.810Z,23.22
2023-04-04T16:29:46.103Z,23.91
2023-04-04T16:32:14.262Z,23.23
2023-04-04T16:34:41.870Z,23.55
2023-04-04T16:37:11.161Z,23.47
2023-04-04T16:39:38.697Z,23.13
2023-04-04T16:42:06.921Z,23.08
2023-04-04T16:44:34.852Z,22.69
2023-04-04T16:47:02.887Z,22.55
2023-04-04T16:49:30.760Z,21.60
2023-04-04T16:51:58.574Z,21.25
2023-04-04T16:54:26.655Z,21.07
2023-04-04T16:56:54.528Z,21.71
2023-04-04T16:59:22.741Z,21.74
2023-04-04T17:01:50.470Z,22.01
2023-04-04T17:04:18.672Z,21.94
2023-04-04T17:06:47.302Z,22.90
2023-04-04T17:09:16.248Z,23.75
2023-04-04T17:11:47.063Z,24.16
2023-04-04T17:14:16.412Z,25.21
2023-04-04T17:16:44.904Z,25.85
2023-04-04T17:19:12.980Z,26.37
2023-04-04T17:21:41.188Z,26.26
2023-04-04T17:24:09.333Z,27.20
2023-04-04T17:26:38.256Z,27.66
2023-04-04T17:29:06.847Z,27.93
2023-04-04T17:31:34.553Z,27.94
2023-04-04T17:34:02.972Z,28.11
2023-04-04T17:36:32.179Z,28.39
2023-04-04T17:39:01.276Z,28.96
2023-04-04T17:41:29.386Z,29.10
2023-04-04T17:43:57.296Z,29.44
2023-04-04T17:46:25.901Z,30.29
2023-04-04T17:48:53.868Z,30.48
2023-04-04T17:51:21.692Z,30.44
2023-04-04T17:53:51.328Z,30.44
2023-04-04T17:56:19.170Z,30.71
2023-04-04T17:58:48.094Z,31.27
2023-04-04T18:01:43.360Z,31.64
2023-04-04T18:04:11.933Z,32.01
2023-04-04T18:06:41.899Z,32.48
2023-04-04T18:09:11.045Z,33.42
2023-04-04T18:11:39.145Z,33.04
2023-04-04T18:14:06.964Z,33.66
2023-04-04T18:16:39.657Z,33.85
2023-04-04T18:19:09.587Z,33.93
2023-04-04T18:21:38.524Z,34.38
2023-04-04T18:24:08.026Z,33.86
2023-04-04T18:26:36.146Z,34.70
2023-04-04T18:29:04.312Z,34.19
2023-04-04T18:31:31.581Z,34.65
2023-04-04T18:33:59.500Z,35.54
2023-04-04T18:36:27.578Z,34.87
2023-04-04T18:38:55.214Z,35.03
2023-04-04T18:41:22.302Z,34.88
2023-04-04T18:43:50.583Z,34.99
2023-04-04T18:46:19.113Z,34.63
2023-04-04T18:48:51.072Z,34.46
2023-04-04T18:51:20.476Z,34.28
2023-04-04T18:53:49.417Z,34.18
2023-04-04T18:56:17.651Z,34.30
2023-04-04T18:58:45.672Z,34.56
2023-04-04T19:01:13.595Z,34.56
2023-04-04T19:03:43.156Z,35.40
2023-04-04T19:06:11.089Z,34.76
2023-04-04T19:08:43.228Z,36.04
2023-04-04T19:11:11.098Z,35.63
2023-04-04T19:13:38.605Z,35.13
2023-04-04T19:16:06.601Z,35.25
2023-04-04T19:18:34.730Z,35.13
2023-04-04T19:21:02.541Z,34.89
2023-04-04T19:23:29.956Z,34.86
2023-04-04T19:26:02.032Z,34.63
2023-04-04T19:28:29.478Z,34.75
2023-04-04T19:30:57.628Z,35.60
2023-04-04T19:33:28.539Z,35.65
2023-04-04T19:36:01.396Z,35.58
2023-04-04T19:38:30.628Z,36.20
2023-04-04T19:41:04.292Z,36.05
2023-04-04T19:43:31.601Z,36.75
2023-04-04T19:46:09.572Z,37.86
2023-04-04T19:48:36.345Z,38.16
2023-04-04T19:51:22.825Z,38.31
2023-04-04T19:53:51.793Z,39.06
2023-04-04T19:56:20.555Z,39.39
2023-04-04T19:58:49.314Z,39.18
2023-04-04T20:01:21.529Z,39.60
2023-04-04T20:03:49.516Z,39.17
2023-04-04T20:06:29.945Z,40.50
2023-04-04T20:09:01.213Z,40.70
2023-04-04T20:11:32.333Z,40.10
2023-04-04T20:14:01.283Z,40.74
2023-04-04T20:16:29.910Z,41.59
2023-04-04T20:18:59.265Z,41.66
2023-04-04T20:21:28.506Z,41.69
2023-04-04T20:24:01.283Z,41.35
2023-04-04T20:26:46.396Z,41.64
2023-04-04T20:29:15.441Z,43.15
2023-04-04T20:31:47.641Z,43.42
2023-04-04T20:34:27.721Z,43.28
2023-04-04T20:36:55.463Z,43.86
2023-04-04T20:39:53.134Z,44.83
2023-04-04T20:42:51.002Z,44.59
2023-04-04T20:45:27.281Z,44.85
2023-04-04T20:47:58.391Z,44.13
2023-04-04T20:50:27.308Z,43.33
2023-04-04T20:53:00.781Z,43.57
2023-04-04T20:55:29.663Z,43.40
2023-04-04T20:58:06.950Z,43.92
2023-04-04T21:00:36.753Z,44.31
2023-04-04T21:03:25.450Z,44.39
2023-04-04T21:06:17.912Z,44.35
2023-04-04T21:08:48.727Z,44.92
2023-04-04T21:11:39.479Z,44.66
2023-04-04T21:14:07.408Z,43.31
2023-04-04T21:16:34.701Z,43.34
2023-04-04T21:19:02.530Z,43.41
2023-04-04T21:21:29.876Z,43.20
2023-04-04T21:23:57.991Z,43.37
2023-04-04T21:26:36.932Z,43.26
2023-04-04T21:29:04.553Z,42.83
2023-04-04T21:31:59.041Z,42.87
2023-04-04T21:34:27.338Z,42.51
2023-04-04T21:37:01.463Z,42.19
2023-04-04T21:39:30.068Z,41.14
2023-04-04T21:42:03.695Z,41.24
2023-04-04T21:44:32.918Z,41.37
2023-04-04T21:47:00.595Z,41.06
2023-04-04T21:49:28.379Z,41.91
2023-04-04T21:51:56.412Z,42.00
2023-04-04T21:54:24.027Z,41.50
2023-04-04T21:56:52.117Z,42.10
2023-04-04T21:59:20.176Z,41.69
2023-04-04T22:01:48.452Z,40.78
2023-04-04T22:04:16.468Z,40.22
2023-04-04T22:06:44.366Z,40.74
2023-04-04T22:09:11.920Z,40.78
2023-04-04T22:11:44.214Z,41.60
2023-04-04T22:14:17.475Z,41.03
2023-04-04T22:16:45.917Z,41.06
2023-04-04T22:19:14.346Z,40.26
2023-04-04T22:21:47.149Z,40.13
2023-04-04T22:24:15.989Z,40.62
2023-04-04T22:26:46.011Z,40.34
2023-04-04T22:29:14.458Z,40.01
2023-04-04T22:31:42.206Z,40.07
2023-04-04T22:34:10.787Z,40.06
2023-04-04T22:36:43.882Z,40.65
2023-04-04T22:39:12.125Z,40.49
2023-04-04T22:41:39.731Z,40.95
2023-04-04T22:44:07.987Z,40.61
2023-04-04T22:46:36.168Z,41.09
2023-04-04T22:49:07.226Z,41.43
2023-04-04T22:51:44.057Z,41.71
2023-04-04T22:54:14.471Z,42.19
2023-04-04T22:56:42.302Z,42.28
2023-04-04T22:59:10.287Z,42.39
2023-04-04T23:01:38.286Z,42.88
2023-04-04T23:04:06.436Z,43.20
2023-04-04T23:06:34.621Z,43.47
2023-04-04T23:09:03.201Z,43.82
2023-04-04T23:11:31.521Z,43.48
2023-04-04T23:14:00.402Z,43.92
2023-04-04T23:16:28.930Z,44.46
2023-04-04T23:18:57.236Z,44.95
2023-04-04T23:21:25.184Z,45.38
2023-04-04T23:23:52.835Z,46.30
2023-04-04T23:26:20.481Z,46.26
2023-04-04T23:28:48.695Z,46.08
2023-04-04T23:31:17.003Z,46.11
2023-04-04T23:33:44.645Z,45.95
2023-04-04T23:36:12.672Z,45.08
2023-04-04T23:38:40.423Z,44.95
2023-04-04T23:41:08.527Z,44.37
2023-04-04T23:43:36.269Z,44.89
2023-04-04T23:46:03.218Z,44.45
2023-04-04T23:48:31.279Z,43.32
2023-04-04T23:51:01.816Z,44.13
2023-04-04T23:53:29.759Z,45.13
2023-04-04T23:55:57.901Z,46.68
2023-04-04T23:58:25.934Z,48.44
